sensor_id;sensor_type;location;lat;lon;timestamp;P1;durP1;ratioP1;P2;durP2;ratioP2
13356;SDS011;6747;56.456;-3.120;2022-08-19T00:02:20;3.78;;;1.73;;
13356;SDS011;6747;56.456;-3.120;2022-08-19T00:07:53;5.32;;;1.90;;
13356;SDS011;6747;56.456;-3.120;2022-08-19T00:10:20;7.45;;;1.95;;
13356;SDS011;6747;56.456;-3.120;2022-08-19T00:15:53;6.47;;;1.92;;
13356;SDS011;6747;56.456;-3.120;2022-08-19T00:18:20;6.65;;;2.55;;
13356;SDS011;6747;56.456;-3.120;2022-08-19T00:20:48;6.03;;;1.98;;
13356;SDS011;6747;56.456;-3.120;2022-08-19T00:26:20;7.95;;;2.50;;
13356;SDS011;6747;56.456;-3.120;2022-08-19T00:31:51;4.32;;;2.00;;
13356;SDS011;6747;56.456;-3.120;2022-08-19T00:37:23;4.80;;;1.90;;
13356;SDS011;6747;56.456;-3.120;2022-08-19T00:39:51;4.38;;;2.10;;
13356;SDS011;6747;56.456;-3.120;2022-08-19T00:42:20;5.00;;;2.08;;
13356;SDS011;6747;56.456;-3.120;2022-08-19T00:47:52;8.40;;;1.88;;
13356;SDS011;6747;56.456;-3.120;2022-08-19T00:50:19;5.90;;;2.10;;
13356;SDS011;6747;56.456;-3.120;2022-08-19T00:55:51;4.93;;;2.13;;
13356;SDS011;6747;56.456;-3.120;2022-08-19T00:58:22;5.60;;;2.33;;
13356;SDS011;6747;56.456;-3.120;2022-08-19T01:00:52;8.27;;;2.50;;
13356;SDS011;6747;56.456;-3.120;2022-08-19T01:06:24;7.18;;;2.50;;
13356;SDS011;6747;56.456;-3.120;2022-08-19T01:08:51;5.07;;;2.50;;
13356;SDS011;6747;56.456;-3.120;2022-08-19T01:11:19;7.68;;;2.38;;
13356;SDS011;6747;56.456;-3.120;2022-08-19T01:16:52;6.85;;;2.15;;
13356;SDS011;6747;56.456;-3.120;2022-08-19T01:19:23;7.20;;;2.80;;
13356;SDS011;6747;56.456;-3.120;2022-08-19T01:21:52;8.07;;;1.98;;
13356;SDS011;6747;56.456;-3.120;2022-08-19T01:27:28;8.13;;;2.67;;
13356;SDS011;6747;56.456;-3.120;2022-08-19T01:30:04;8.18;;;2.50;;
13356;SDS011;6747;56.456;-3.120;2022-08-19T01:35:37;9.77;;;2.60;;
13356;SDS011;6747;56.456;-3.120;2022-08-19T01:38:06;8.57;;;2.42;;
13356;SDS011;6747;56.456;-3.120;2022-08-19T01:40:36;10.32;;;2.40;;
13356;SDS011;6747;56.456;-3.120;2022-08-19T01:43:06;6.85;;;2.50;;
13356;SDS011;6747;56.456;-3.120;2022-08-19T01:45:34;8.32;;;2.60;;
13356;SDS011;6747;56.456;-3.120;2022-08-19T01:48:05;7.88;;;2.90;;
13356;SDS011;6747;56.456;-3.120;2022-08-19T01:50:33;9.13;;;2.60;;
13356;SDS011;6747;56.456;-3.120;2022-08-19T01:56:05;9.15;;;2.97;;
13356;SDS011;6747;56.456;-3.120;2022-08-19T01:58:35;8.10;;;2.60;;
13356;SDS011;6747;56.456;-3.120;2022-08-19T02:01:03;9.23;;;2.65;;
13356;SDS011;6747;56.456;-3.120;2022-08-19T02:06:35;6.68;;;2.22;;
13356;SDS011;6747;56.456;-3.120;2022-08-19T02:09:03;7.15;;;2.75;;
13356;SDS011;6747;56.456;-3.120;2022-08-19T02:11:31;10.75;;;2.55;;
13356;SDS011;6747;56.456;-3.120;2022-08-19T02:17:04;9.07;;;2.67;;
13356;SDS011;6747;56.456;-3.120;2022-08-19T02:19:31;8.73;;;3.22;;
13356;SDS011;6747;56.456;-3.120;2022-08-19T02:21:59;10.38;;;2.75;;
13356;SDS011;6747;56.456;-3.120;2022-08-19T02:27:30;11.25;;;2.28;;
13356;SDS011;6747;56.456;-3.120;2022-08-19T02:29:58;8.30;;;2.40;;
13356;SDS011;6747;56.456;-3.120;2022-08-19T02:32:27;9.10;;;2.80;;
13356;SDS011;6747;56.456;-3.120;2022-08-19T02:37:58;7.72;;;2.67;;
13356;SDS011;6747;56.456;-3.120;2022-08-19T02:43:47;5.43;;;2.20;;
13356;SDS011;6747;56.456;-3.120;2022-08-19T02:46:15;5.10;;;2.08;;
13356;SDS011;6747;56.456;-3.120;2022-08-19T02:48:47;9.68;;;2.50;;
13356;SDS011;6747;56.456;-3.120;2022-08-19T02:51:18;10.60;;;2.60;;
13356;SDS011;6747;56.456;-3.120;2022-08-19T02:56:49;7.13;;;2.45;;
13356;SDS011;6747;56.456;-3.120;2022-08-19T02:59:16;9.20;;;2.25;;
13356;SDS011;6747;56.456;-3.120;2022-08-19T03:01:44;6.82;;;2.72;;
13356;SDS011;6747;56.456;-3.120;2022-08-19T03:07:17;7.68;;;2.17;;
13356;SDS011;6747;56.456;-3.120;2022-08-19T03:09:45;7.03;;;2.40;;
13356;SDS011;6747;56.456;-3.120;2022-08-19T03:12:12;6.43;;;2.35;;
13356;SDS011;6747;56.456;-3.120;2022-08-19T03:17:43;8.07;;;2.13;;
13356;SDS011;6747;56.456;-3.120;2022-08-19T03:20:10;10.20;;;2.00;;
13356;SDS011;6747;56.456;-3.120;2022-08-19T03:22:39;9.57;;;2.67;;
13356;SDS011;6747;56.456;-3.120;2022-08-19T03:25:07;6.80;;;2.22;;
13356;SDS011;6747;56.456;-3.120;2022-08-19T03:27:36;8.32;;;2.25;;
13356;SDS011;6747;56.456;-3.120;2022-08-19T03:30:04;9.10;;;2.13;;
13356;SDS011;6747;56.456;-3.120;2022-08-19T03:32:31;10.93;;;2.67;;
13356;SDS011;6747;56.456;-3.120;2022-08-19T03:34:59;9.10;;;2.30;;
13356;SDS011;6747;56.456;-3.120;2022-08-19T03:37:27;7.47;;;2.33;;
13356;SDS011;6747;56.456;-3.120;2022-08-19T03:39:56;8.95;;;2.60;;
13356;SDS011;6747;56.456;-3.120;2022-08-19T03:42:23;7.85;;;2.63;;
13356;SDS011;6747;56.456;-3.120;2022-08-19T03:44:52;8.65;;;2.30;;
13356;SDS011;6747;56.456;-3.120;2022-08-19T03:47:19;8.93;;;2.30;;
13356;SDS011;6747;56.456;-3.120;2022-08-19T03:49:47;4.97;;;1.80;;
13356;SDS011;6747;56.456;-3.120;2022-08-19T03:52:14;10.93;;;2.38;;
13356;SDS011;6747;56.456;-3.120;2022-08-19T03:57:47;10.10;;;2.75;;
13356;SDS011;6747;56.456;-3.120;2022-08-19T04:03:17;5.80;;;2.30;;
13356;SDS011;6747;56.456;-3.120;2022-08-19T04:05:45;5.20;;;2.10;;
13356;SDS011;6747;56.456;-3.120;2022-08-19T04:08:14;9.98;;;2.97;;
13356;SDS011;6747;56.456;-3.120;2022-08-19T04:10:46;6.25;;;2.20;;
13356;SDS011;6747;56.456;-3.120;2022-08-19T04:16:19;6.88;;;2.22;;
13356;SDS011;6747;56.456;-3.120;2022-08-19T04:18:47;8.20;;;2.20;;
13356;SDS011;6747;56.456;-3.120;2022-08-19T04:21:15;9.55;;;2.55;;
13356;SDS011;6747;56.456;-3.120;2022-08-19T04:26:47;8.30;;;2.70;;
13356;SDS011;6747;56.456;-3.120;2022-08-19T04:29:16;10.15;;;2.67;;
13356;SDS011;6747;56.456;-3.120;2022-08-19T04:31:45;5.20;;;2.28;;
13356;SDS011;6747;56.456;-3.120;2022-08-19T04:37:17;8.38;;;2.47;;
13356;SDS011;6747;56.456;-3.120;2022-08-19T04:39:44;5.32;;;2.30;;
13356;SDS011;6747;56.456;-3.120;2022-08-19T04:42:29;11.15;;;2.80;;
13356;SDS011;6747;56.456;-3.120;2022-08-19T04:45:06;6.60;;;2.25;;
13356;SDS011;6747;56.456;-3.120;2022-08-19T04:47:36;4.72;;;1.92;;
13356;SDS011;6747;56.456;-3.120;2022-08-19T04:50:04;9.43;;;3.00;;
13356;SDS011;6747;56.456;-3.120;2022-08-19T04:52:32;7.07;;;2.00;;
13356;SDS011;6747;56.456;-3.120;2022-08-19T04:55:00;8.73;;;1.98;;
13356;SDS011;6747;56.456;-3.120;2022-08-19T04:57:27;7.18;;;2.20;;
13356;SDS011;6747;56.456;-3.120;2022-08-19T04:59:55;9.48;;;2.67;;
13356;SDS011;6747;56.456;-3.120;2022-08-19T05:02:23;8.93;;;2.17;;
13356;SDS011;6747;56.456;-3.120;2022-08-19T05:07:22;6.82;;;2.13;;
13356;SDS011;6747;56.456;-3.120;2022-08-19T05:09:49;6.07;;;2.22;;
13356;SDS011;6747;56.456;-3.120;2022-08-19T05:12:17;6.72;;;2.35;;
13356;SDS011;6747;56.456;-3.120;2022-08-19T05:17:49;7.20;;;2.65;;
13356;SDS011;6747;56.456;-3.120;2022-08-19T05:20:30;6.18;;;2.45;;
13356;SDS011;6747;56.456;-3.120;2022-08-19T05:26:19;5.88;;;2.67;;
13356;SDS011;6747;56.456;-3.120;2022-08-19T05:28:47;9.13;;;2.28;;
13356;SDS011;6747;56.456;-3.120;2022-08-19T05:31:14;6.68;;;2.72;;
13356;SDS011;6747;56.456;-3.120;2022-08-19T05:36:45;10.60;;;2.30;;
13356;SDS011;6747;56.456;-3.120;2022-08-19T05:39:14;10.45;;;2.53;;
13356;SDS011;6747;56.456;-3.120;2022-08-19T05:41:43;6.68;;;2.05;;
13356;SDS011;6747;56.456;-3.120;2022-08-19T05:44:11;6.22;;;2.38;;
13356;SDS011;6747;56.456;-3.120;2022-08-19T05:46:39;6.60;;;2.25;;
13356;SDS011;6747;56.456;-3.120;2022-08-19T05:49:07;6.15;;;2.03;;
13356;SDS011;6747;56.456;-3.120;2022-08-19T05:51:35;8.60;;;2.83;;
13356;SDS011;6747;56.456;-3.120;2022-08-19T05:57:08;11.73;;;2.80;;
13356;SDS011;6747;56.456;-3.120;2022-08-19T05:59:35;9.55;;;2.72;;
13356;SDS011;6747;56.456;-3.120;2022-08-19T06:02:03;8.45;;;2.78;;
13356;SDS011;6747;56.456;-3.120;2022-08-19T06:07:35;14.98;;;2.80;;
13356;SDS011;6747;56.456;-3.120;2022-08-19T06:10:02;8.60;;;2.95;;
13356;SDS011;6747;56.456;-3.120;2022-08-19T06:12:31;7.38;;;2.90;;
13356;SDS011;6747;56.456;-3.120;2022-08-19T06:14:59;5.20;;;2.42;;
13356;SDS011;6747;56.456;-3.120;2022-08-19T06:17:27;10.43;;;2.97;;
13356;SDS011;6747;56.456;-3.120;2022-08-19T06:19:55;13.60;;;3.20;;
13356;SDS011;6747;56.456;-3.120;2022-08-19T06:22:26;8.73;;;3.13;;
13356;SDS011;6747;56.456;-3.120;2022-08-19T06:27:59;9.23;;;3.25;;
13356;SDS011;6747;56.456;-3.120;2022-08-19T06:33:30;9.88;;;3.25;;
13356;SDS011;6747;56.456;-3.120;2022-08-19T06:35:57;8.48;;;3.13;;
13356;SDS011;6747;56.456;-3.120;2022-08-19T06:38:25;9.55;;;3.67;;
13356;SDS011;6747;56.456;-3.120;2022-08-19T06:40:59;7.20;;;3.30;;
13356;SDS011;6747;56.456;-3.120;2022-08-19T06:43:28;6.35;;;3.55;;
13356;SDS011;6747;56.456;-3.120;2022-08-19T06:45:55;8.30;;;3.42;;
13356;SDS011;6747;56.456;-3.120;2022-08-19T06:48:24;8.77;;;3.35;;
13356;SDS011;6747;56.456;-3.120;2022-08-19T06:50:51;7.32;;;3.08;;
13356;SDS011;6747;56.456;-3.120;2022-08-19T06:56:23;6.88;;;2.50;;
13356;SDS011;6747;56.456;-3.120;2022-08-19T06:58:57;7.10;;;2.78;;
13356;SDS011;6747;56.456;-3.120;2022-08-19T07:01:25;7.93;;;2.15;;
13356;SDS011;6747;56.456;-3.120;2022-08-19T07:06:56;4.75;;;2.13;;
13356;SDS011;6747;56.456;-3.120;2022-08-19T07:09:25;9.50;;;3.22;;
13356;SDS011;6747;56.456;-3.120;2022-08-19T07:11:53;9.95;;;2.50;;
13356;SDS011;6747;56.456;-3.120;2022-08-19T07:17:26;6.05;;;2.50;;
13356;SDS011;6747;56.456;-3.120;2022-08-19T07:19:53;5.90;;;2.50;;
13356;SDS011;6747;56.456;-3.120;2022-08-19T07:22:21;6.50;;;2.40;;
13356;SDS011;6747;56.456;-3.120;2022-08-19T07:27:52;6.82;;;2.38;;
13356;SDS011;6747;56.456;-3.120;2022-08-19T07:30:20;9.48;;;2.92;;
13356;SDS011;6747;56.456;-3.120;2022-08-19T07:35:53;8.25;;;2.67;;
13356;SDS011;6747;56.456;-3.120;2022-08-19T07:41:25;9.23;;;2.88;;
13356;SDS011;6747;56.456;-3.120;2022-08-19T07:47:09;9.45;;;3.22;;
13356;SDS011;6747;56.456;-3.120;2022-08-19T07:49:40;9.80;;;3.17;;
13356;SDS011;6747;56.456;-3.120;2022-08-19T07:52:12;8.15;;;2.20;;
13356;SDS011;6747;56.456;-3.120;2022-08-19T07:57:46;7.63;;;2.50;;
13356;SDS011;6747;56.456;-3.120;2022-08-19T08:00:15;8.10;;;2.65;;
13356;SDS011;6747;56.456;-3.120;2022-08-19T08:05:46;5.38;;;2.10;;
13356;SDS011;6747;56.456;-3.120;2022-08-19T08:08:32;8.38;;;2.20;;
13356;SDS011;6747;56.456;-3.120;2022-08-19T08:11:18;7.65;;;2.00;;
13356;SDS011;6747;56.456;-3.120;2022-08-19T08:16:50;8.77;;;2.70;;
13356;SDS011;6747;56.456;-3.120;2022-08-19T08:22:22;10.27;;;2.25;;
13356;SDS011;6747;56.456;-3.120;2022-08-19T08:25:06;9.15;;;2.45;;
13356;SDS011;6747;56.456;-3.120;2022-08-19T08:27:35;5.55;;;2.53;;
13356;SDS011;6747;56.456;-3.120;2022-08-19T08:30:05;6.20;;;2.20;;
13356;SDS011;6747;56.456;-3.120;2022-08-19T08:32:34;7.82;;;2.40;;
13356;SDS011;6747;56.456;-3.120;2022-08-19T08:35:02;5.65;;;2.10;;
13356;SDS011;6747;56.456;-3.120;2022-08-19T08:37:30;6.13;;;1.98;;
13356;SDS011;6747;56.456;-3.120;2022-08-19T08:39:57;8.85;;;1.90;;
13356;SDS011;6747;56.456;-3.120;2022-08-19T08:42:27;5.88;;;2.13;;
13356;SDS011;6747;56.456;-3.120;2022-08-19T08:44:58;5.53;;;2.45;;
13356;SDS011;6747;56.456;-3.120;2022-08-19T08:47:26;6.70;;;2.08;;
13356;SDS011;6747;56.456;-3.120;2022-08-19T08:49:56;6.07;;;1.58;;
13356;SDS011;6747;56.456;-3.120;2022-08-19T08:52:27;6.13;;;1.98;;
13356;SDS011;6747;56.456;-3.120;2022-08-19T08:58:00;6.10;;;2.00;;
13356;SDS011;6747;56.456;-3.120;2022-08-19T09:03:32;7.60;;;2.10;;
13356;SDS011;6747;56.456;-3.120;2022-08-19T09:06:00;3.55;;;1.90;;
13356;SDS011;6747;56.456;-3.120;2022-08-19T09:08:33;9.07;;;2.00;;
13356;SDS011;6747;56.456;-3.120;2022-08-19T09:11:06;5.53;;;1.80;;
13356;SDS011;6747;56.456;-3.120;2022-08-19T09:16:39;8.70;;;1.73;;
13356;SDS011;6747;56.456;-3.120;2022-08-19T09:19:07;6.72;;;1.70;;
13356;SDS011;6747;56.456;-3.120;2022-08-19T09:21:35;5.20;;;1.67;;
13356;SDS011;6747;56.456;-3.120;2022-08-19T09:27:07;6.93;;;1.92;;
13356;SDS011;6747;56.456;-3.120;2022-08-19T09:29:34;7.05;;;1.60;;
13356;SDS011;6747;56.456;-3.120;2022-08-19T09:32:04;4.55;;;1.63;;
13356;SDS011;6747;56.456;-3.120;2022-08-19T09:37:35;6.05;;;1.80;;
13356;SDS011;6747;56.456;-3.120;2022-08-19T09:40:03;4.90;;;1.67;;
13356;SDS011;6747;56.456;-3.120;2022-08-19T09:42:32;6.78;;;2.00;;
13356;SDS011;6747;56.456;-3.120;2022-08-19T09:45:00;3.83;;;1.50;;
13356;SDS011;6747;56.456;-3.120;2022-08-19T09:47:29;5.95;;;1.95;;
13356;SDS011;6747;56.456;-3.120;2022-08-19T09:49:57;8.48;;;2.47;;
13356;SDS011;6747;56.456;-3.120;2022-08-19T09:52:25;2.58;;;1.40;;
13356;SDS011;6747;56.456;-3.120;2022-08-19T09:58:42;4.03;;;1.85;;
13356;SDS011;6747;56.456;-3.120;2022-08-19T10:01:15;6.07;;;1.50;;
13356;SDS011;6747;56.456;-3.120;2022-08-19T10:06:49;7.47;;;1.48;;
13356;SDS011;6747;56.456;-3.120;2022-08-19T10:09:17;4.95;;;1.73;;
13356;SDS011;6747;56.456;-3.120;2022-08-19T10:11:45;3.38;;;1.80;;
13356;SDS011;6747;56.456;-3.120;2022-08-19T10:17:18;4.43;;;2.22;;
13356;SDS011;6747;56.456;-3.120;2022-08-19T10:22:51;4.03;;;1.65;;
13356;SDS011;6747;56.456;-3.120;2022-08-19T10:25:19;3.22;;;1.63;;
13356;SDS011;6747;56.456;-3.120;2022-08-19T10:27:47;3.95;;;1.83;;
13356;SDS011;6747;56.456;-3.120;2022-08-19T10:30:14;4.20;;;1.50;;
13356;SDS011;6747;56.456;-3.120;2022-08-19T10:35:45;3.70;;;2.13;;
13356;SDS011;6747;56.456;-3.120;2022-08-19T10:41:20;9.80;;;1.88;;
13356;SDS011;6747;56.456;-3.120;2022-08-19T10:46:52;5.68;;;1.80;;
13356;SDS011;6747;56.456;-3.120;2022-08-19T10:49:19;5.63;;;1.88;;
13356;SDS011;6747;56.456;-3.120;2022-08-19T10:51:49;2.97;;;1.75;;
13356;SDS011;6747;56.456;-3.120;2022-08-19T10:57:38;3.72;;;1.70;;
13356;SDS011;6747;56.456;-3.120;2022-08-19T11:00:06;7.47;;;1.45;;
13356;SDS011;6747;56.456;-3.120;2022-08-19T11:02:34;3.75;;;1.45;;
13356;SDS011;6747;56.456;-3.120;2022-08-19T11:05:02;3.65;;;1.45;;
13356;SDS011;6747;56.456;-3.120;2022-08-19T11:07:30;7.03;;;1.63;;
13356;SDS011;6747;56.456;-3.120;2022-08-19T11:09:58;5.93;;;1.90;;
13356;SDS011;6747;56.456;-3.120;2022-08-19T11:12:26;2.10;;;1.17;;
13356;SDS011;6747;56.456;-3.120;2022-08-19T11:17:58;4.10;;;1.60;;
13356;SDS011;6747;56.456;-3.120;2022-08-19T11:20:26;3.47;;;1.77;;
13356;SDS011;6747;56.456;-3.120;2022-08-19T11:25:58;3.05;;;1.52;;
13356;SDS011;6747;56.456;-3.120;2022-08-19T11:31:30;3.10;;;2.10;;
13356;SDS011;6747;56.456;-3.120;2022-08-19T11:37:03;5.97;;;1.73;;
13356;SDS011;6747;56.456;-3.120;2022-08-19T11:39:32;4.18;;;1.67;;
13356;SDS011;6747;56.456;-3.120;2022-08-19T11:42:00;5.22;;;1.80;;
13356;SDS011;6747;56.456;-3.120;2022-08-19T11:44:48;4.68;;;1.80;;
13356;SDS011;6747;56.456;-3.120;2022-08-19T11:47:15;3.85;;;1.63;;
13356;SDS011;6747;56.456;-3.120;2022-08-19T11:49:43;6.22;;;1.85;;
13356;SDS011;6747;56.456;-3.120;2022-08-19T11:52:12;4.35;;;1.63;;
13356;SDS011;6747;56.456;-3.120;2022-08-19T11:57:43;4.10;;;1.80;;
13356;SDS011;6747;56.456;-3.120;2022-08-19T12:00:12;5.45;;;1.80;;
13356;SDS011;6747;56.456;-3.120;2022-08-19T12:05:43;3.80;;;1.80;;
13356;SDS011;6747;56.456;-3.120;2022-08-19T12:08:13;4.55;;;1.90;;
13356;SDS011;6747;56.456;-3.120;2022-08-19T12:10:40;3.15;;;1.92;;
13356;SDS011;6747;56.456;-3.120;2022-08-19T12:16:12;6.22;;;1.75;;
13356;SDS011;6747;56.456;-3.120;2022-08-19T12:18:41;4.75;;;1.63;;
13356;SDS011;6747;56.456;-3.120;2022-08-19T12:21:08;5.80;;;2.08;;
13356;SDS011;6747;56.456;-3.120;2022-08-19T12:26:43;1.92;;;0.90;;
13356;SDS011;6747;56.456;-3.120;2022-08-19T12:29:10;3.10;;;1.38;;
13356;SDS011;6747;56.456;-3.120;2022-08-19T12:31:38;2.45;;;1.27;;
13356;SDS011;6747;56.456;-3.120;2022-08-19T12:37:10;6.63;;;3.75;;
13356;SDS011;6747;56.456;-3.120;2022-08-19T12:39:38;3.75;;;1.20;;
13356;SDS011;6747;56.456;-3.120;2022-08-19T12:42:08;6.60;;;3.40;;
13356;SDS011;6747;56.456;-3.120;2022-08-19T12:47:39;2.58;;;1.20;;
13356;SDS011;6747;56.456;-3.120;2022-08-19T12:50:07;3.00;;;1.00;;
13356;SDS011;6747;56.456;-3.120;2022-08-19T12:52:35;5.22;;;1.58;;
13356;SDS011;6747;56.456;-3.120;2022-08-19T12:55:03;3.95;;;1.40;;
13356;SDS011;6747;56.456;-3.120;2022-08-19T12:57:33;3.30;;;1.67;;
13356;SDS011;6747;56.456;-3.120;2022-08-19T13:00:03;3.95;;;1.58;;
13356;SDS011;6747;56.456;-3.120;2022-08-19T13:02:35;2.60;;;1.33;;
13356;SDS011;6747;56.456;-3.120;2022-08-19T13:05:03;2.30;;;1.00;;
13356;SDS011;6747;56.456;-3.120;2022-08-19T13:07:35;2.85;;;1.10;;
13356;SDS011;6747;56.456;-3.120;2022-08-19T13:10:03;1.67;;;0.93;;
13356;SDS011;6747;56.456;-3.120;2022-08-19T13:12:30;1.90;;;1.40;;
13356;SDS011;6747;56.456;-3.120;2022-08-19T13:14:59;4.22;;;1.50;;
13356;SDS011;6747;56.456;-3.120;2022-08-19T13:17:27;1.85;;;1.25;;
13356;SDS011;6747;56.456;-3.120;2022-08-19T13:19:54;3.17;;;1.17;;
13356;SDS011;6747;56.456;-3.120;2022-08-19T13:22:21;2.92;;;1.45;;
13356;SDS011;6747;56.456;-3.120;2022-08-19T13:27:53;1.92;;;1.05;;
13356;SDS011;6747;56.456;-3.120;2022-08-19T13:33:26;4.07;;;1.48;;
13356;SDS011;6747;56.456;-3.120;2022-08-19T13:35:56;2.17;;;1.60;;
13356;SDS011;6747;56.456;-3.120;2022-08-19T13:38:25;1.88;;;1.25;;
13356;SDS011;6747;56.456;-3.120;2022-08-19T13:40:53;3.40;;;1.30;;
13356;SDS011;6747;56.456;-3.120;2022-08-19T13:46:25;2.38;;;0.88;;
13356;SDS011;6747;56.456;-3.120;2022-08-19T13:48:56;3.08;;;1.10;;
13356;SDS011;6747;56.456;-3.120;2022-08-19T13:51:23;4.22;;;1.02;;
13356;SDS011;6747;56.456;-3.120;2022-08-19T13:56:55;4.15;;;1.38;;
13356;SDS011;6747;56.456;-3.120;2022-08-19T13:59:22;3.60;;;1.20;;
13356;SDS011;6747;56.456;-3.120;2022-08-19T14:01:50;4.55;;;1.48;;
13356;SDS011;6747;56.456;-3.120;2022-08-19T14:07:23;3.38;;;1.48;;
13356;SDS011;6747;56.456;-3.120;2022-08-19T14:09:50;2.20;;;1.25;;
13356;SDS011;6747;56.456;-3.120;2022-08-19T14:12:18;2.75;;;1.10;;
13356;SDS011;6747;56.456;-3.120;2022-08-19T14:17:50;2.15;;;1.15;;
13356;SDS011;6747;56.456;-3.120;2022-08-19T14:20:18;1.35;;;0.77;;
13356;SDS011;6747;56.456;-3.120;2022-08-19T14:25:51;3.33;;;1.17;;
13356;SDS011;6747;56.456;-3.120;2022-08-19T14:31:25;1.67;;;1.42;;
13356;SDS011;6747;56.456;-3.120;2022-08-19T14:36:56;2.75;;;1.38;;
13356;SDS011;6747;56.456;-3.120;2022-08-19T14:39:23;2.53;;;1.13;;
13356;SDS011;6747;56.456;-3.120;2022-08-19T14:41:52;3.35;;;1.05;;
13356;SDS011;6747;56.456;-3.120;2022-08-19T14:47:23;1.73;;;1.00;;
13356;SDS011;6747;56.456;-3.120;2022-08-19T14:49:51;2.25;;;1.27;;
13356;SDS011;6747;56.456;-3.120;2022-08-19T14:52:18;2.30;;;0.98;;
13356;SDS011;6747;56.456;-3.120;2022-08-19T14:57:51;3.20;;;1.00;;
13356;SDS011;6747;56.456;-3.120;2022-08-19T15:00:18;2.72;;;1.00;;
13356;SDS011;6747;56.456;-3.120;2022-08-19T15:05:49;1.98;;;0.68;;
13356;SDS011;6747;56.456;-3.120;2022-08-19T15:08:17;2.40;;;1.00;;
13356;SDS011;6747;56.456;-3.120;2022-08-19T15:10:46;1.70;;;1.13;;
13356;SDS011;6747;56.456;-3.120;2022-08-19T15:16:19;3.78;;;1.17;;
13356;SDS011;6747;56.456;-3.120;2022-08-19T15:18:48;4.38;;;1.08;;
13356;SDS011;6747;56.456;-3.120;2022-08-19T15:21:16;2.70;;;1.48;;
13356;SDS011;6747;56.456;-3.120;2022-08-19T15:26:47;2.00;;;0.90;;
13356;SDS011;6747;56.456;-3.120;2022-08-19T15:29:15;1.65;;;1.00;;
13356;SDS011;6747;56.456;-3.120;2022-08-19T15:31:44;0.90;;;0.90;;
13356;SDS011;6747;56.456;-3.120;2022-08-19T15:37:15;2.33;;;1.10;;
13356;SDS011;6747;56.456;-3.120;2022-08-19T15:39:42;3.97;;;1.33;;
13356;SDS011;6747;56.456;-3.120;2022-08-19T15:42:11;2.25;;;1.10;;
13356;SDS011;6747;56.456;-3.120;2022-08-19T15:47:43;1.95;;;1.10;;
13356;SDS011;6747;56.456;-3.120;2022-08-19T15:50:12;3.45;;;1.10;;
13356;SDS011;6747;56.456;-3.120;2022-08-19T15:52:44;3.42;;;1.13;;
13356;SDS011;6747;56.456;-3.120;2022-08-19T15:55:11;2.75;;;1.30;;
13356;SDS011;6747;56.456;-3.120;2022-08-19T15:57:39;1.90;;;1.15;;
13356;SDS011;6747;56.456;-3.120;2022-08-19T16:00:24;2.55;;;1.13;;
13356;SDS011;6747;56.456;-3.120;2022-08-19T16:06:14;1.33;;;0.88;;
13356;SDS011;6747;56.456;-3.120;2022-08-19T16:08:54;2.45;;;1.20;;
13356;SDS011;6747;56.456;-3.120;2022-08-19T16:11:22;2.35;;;1.02;;
13356;SDS011;6747;56.456;-3.120;2022-08-19T16:16:54;1.73;;;1.00;;
13356;SDS011;6747;56.456;-3.120;2022-08-19T16:19:21;4.68;;;1.20;;
13356;SDS011;6747;56.456;-3.120;2022-08-19T16:21:52;2.55;;;1.13;;
13356;SDS011;6747;56.456;-3.120;2022-08-19T16:27:26;2.20;;;1.20;;
13356;SDS011;6747;56.456;-3.120;2022-08-19T16:29:54;4.25;;;1.02;;
13356;SDS011;6747;56.456;-3.120;2022-08-19T16:32:22;2.22;;;1.10;;
13356;SDS011;6747;56.456;-3.120;2022-08-19T16:37:39;2.05;;;1.38;;
13356;SDS011;6747;56.456;-3.120;2022-08-19T16:40:07;2.80;;;1.20;;
13356;SDS011;6747;56.456;-3.120;2022-08-19T16:42:34;2.55;;;0.90;;
13356;SDS011;6747;56.456;-3.120;2022-08-19T16:45:02;1.25;;;1.08;;
13356;SDS011;6747;56.456;-3.120;2022-08-19T16:47:33;2.60;;;1.38;;
13356;SDS011;6747;56.456;-3.120;2022-08-19T16:50:00;2.42;;;1.10;;
13356;SDS011;6747;56.456;-3.120;2022-08-19T16:52:31;1.52;;;0.80;;
13356;SDS011;6747;56.456;-3.120;2022-08-19T16:55:00;2.90;;;1.00;;
13356;SDS011;6747;56.456;-3.120;2022-08-19T16:57:27;2.45;;;0.85;;
13356;SDS011;6747;56.456;-3.120;2022-08-19T16:59:56;1.73;;;0.88;;
13356;SDS011;6747;56.456;-3.120;2022-08-19T17:02:23;1.40;;;0.82;;
13356;SDS011;6747;56.456;-3.120;2022-08-19T17:07:54;1.95;;;1.08;;
13356;SDS011;6747;56.456;-3.120;2022-08-19T17:10:24;1.90;;;0.90;;
13356;SDS011;6747;56.456;-3.120;2022-08-19T17:15:55;2.17;;;0.93;;
13356;SDS011;6747;56.456;-3.120;2022-08-19T17:18:22;2.47;;;1.13;;
13356;SDS011;6747;56.456;-3.120;2022-08-19T17:20:50;1.70;;;0.80;;
13356;SDS011;6747;56.456;-3.120;2022-08-19T17:26:23;1.75;;;1.00;;
13356;SDS011;6747;56.456;-3.120;2022-08-19T17:31:54;4.15;;;1.00;;
13356;SDS011;6747;56.456;-3.120;2022-08-19T17:37:25;1.65;;;0.75;;
13356;SDS011;6747;56.456;-3.120;2022-08-19T17:39:52;2.53;;;1.02;;
13356;SDS011;6747;56.456;-3.120;2022-08-19T17:42:21;1.10;;;0.55;;
13356;SDS011;6747;56.456;-3.120;2022-08-19T17:47:52;1.90;;;0.60;;
13356;SDS011;6747;56.456;-3.120;2022-08-19T17:50:20;0.73;;;0.65;;
13356;SDS011;6747;56.456;-3.120;2022-08-19T17:55:53;2.72;;;1.10;;
13356;SDS011;6747;56.456;-3.120;2022-08-19T17:58:22;2.28;;;0.90;;
13356;SDS011;6747;56.456;-3.120;2022-08-19T18:00:50;1.52;;;0.60;;
13356;SDS011;6747;56.456;-3.120;2022-08-19T18:06:22;3.67;;;1.27;;
13356;SDS011;6747;56.456;-3.120;2022-08-19T18:08:50;1.73;;;0.80;;
13356;SDS011;6747;56.456;-3.120;2022-08-19T18:11:17;1.73;;;0.93;;
13356;SDS011;6747;56.456;-3.120;2022-08-19T18:16:50;2.40;;;1.10;;
13356;SDS011;6747;56.456;-3.120;2022-08-19T18:19:19;2.13;;;1.20;;
13356;SDS011;6747;56.456;-3.120;2022-08-19T18:21:47;0.77;;;0.68;;
13356;SDS011;6747;56.456;-3.120;2022-08-19T18:27:18;2.47;;;0.88;;
13356;SDS011;6747;56.456;-3.120;2022-08-19T18:29:46;1.40;;;0.77;;
13356;SDS011;6747;56.456;-3.120;2022-08-19T18:32:16;1.38;;;0.57;;
13356;SDS011;6747;56.456;-3.120;2022-08-19T18:37:47;2.42;;;0.63;;
13356;SDS011;6747;56.456;-3.120;2022-08-19T18:40:15;1.15;;;0.55;;
13356;SDS011;6747;56.456;-3.120;2022-08-19T18:46:04;0.88;;;0.60;;
13356;SDS011;6747;56.456;-3.120;2022-08-19T18:52:00;0.95;;;0.50;;
13356;SDS011;6747;56.456;-3.120;2022-08-19T18:57:32;2.40;;;0.47;;
13356;SDS011;6747;56.456;-3.120;2022-08-19T19:00:00;1.00;;;0.80;;
13356;SDS011;6747;56.456;-3.120;2022-08-19T19:02:28;2.97;;;0.60;;
13356;SDS011;6747;56.456;-3.120;2022-08-19T19:05:03;0.60;;;0.60;;
13356;SDS011;6747;56.456;-3.120;2022-08-19T19:07:33;1.98;;;0.82;;
13356;SDS011;6747;56.456;-3.120;2022-08-19T19:10:00;2.42;;;0.65;;
13356;SDS011;6747;56.456;-3.120;2022-08-19T19:12:28;1.02;;;0.88;;
13356;SDS011;6747;56.456;-3.120;2022-08-19T19:14:56;1.50;;;1.00;;
13356;SDS011;6747;56.456;-3.120;2022-08-19T19:17:24;2.63;;;0.65;;
13356;SDS011;6747;56.456;-3.120;2022-08-19T19:19:52;0.73;;;0.55;;
13356;SDS011;6747;56.456;-3.120;2022-08-19T19:22:20;0.70;;;0.50;;
13356;SDS011;6747;56.456;-3.120;2022-08-19T19:27:54;1.95;;;0.55;;
13356;SDS011;6747;56.456;-3.120;2022-08-19T19:36:13;0.63;;;0.50;;
13356;SDS011;6747;56.456;-3.120;2022-08-19T19:38:41;2.20;;;0.75;;
13356;SDS011;6747;56.456;-3.120;2022-08-19T19:41:10;2.30;;;0.82;;
13356;SDS011;6747;56.456;-3.120;2022-08-19T19:46:42;2.65;;;0.70;;
13356;SDS011;6747;56.456;-3.120;2022-08-19T19:52:14;0.70;;;0.70;;
13356;SDS011;6747;56.456;-3.120;2022-08-19T19:57:47;1.80;;;1.02;;
13356;SDS011;6747;56.456;-3.120;2022-08-19T20:00:15;1.33;;;0.70;;
13356;SDS011;6747;56.456;-3.120;2022-08-19T20:05:48;1.95;;;1.02;;
13356;SDS011;6747;56.456;-3.120;2022-08-19T20:08:16;1.83;;;0.90;;
13356;SDS011;6747;56.456;-3.120;2022-08-19T20:11:02;1.52;;;0.70;;
13356;SDS011;6747;56.456;-3.120;2022-08-19T20:16:34;2.75;;;1.05;;
13356;SDS011;6747;56.456;-3.120;2022-08-19T20:19:02;2.60;;;0.93;;
13356;SDS011;6747;56.456;-3.120;2022-08-19T20:21:31;2.92;;;1.13;;
13356;SDS011;6747;56.456;-3.120;2022-08-19T20:27:03;3.95;;;1.10;;
13356;SDS011;6747;56.456;-3.120;2022-08-19T20:29:31;2.13;;;0.90;;
13356;SDS011;6747;56.456;-3.120;2022-08-19T20:31:58;1.13;;;1.05;;
13356;SDS011;6747;56.456;-3.120;2022-08-19T20:37:32;1.52;;;1.20;;
13356;SDS011;6747;56.456;-3.120;2022-08-19T20:39:59;1.42;;;0.82;;